createdAt,value
2019-02-03T00:00:32.580Z,114.17
2019-02-03T00:01:13.766Z,118.75
2019-02-03T00:01:47.339Z,115.00
2019-02-03T00:02:20.925Z,124.67
2019-02-03T00:02:54.453Z,110.88
2019-02-03T00:03:28.039Z,125.12
2019-02-03T00:04:01.577Z,121.87
2019-02-03T00:04:35.091Z,123.53
2019-02-03T00:05:08.857Z,127.35
2019-02-03T00:05:42.373Z,123.60
2019-02-03T00:06:16.233Z,131.85
2019-02-03T00:06:49.743Z,121.87
2019-02-03T00:07:23.280Z,127.20
2019-02-03T00:07:56.790Z,129.15
2019-02-03T00:08:30.529Z,122.53
2019-02-03T00:09:08.122Z,138.37
2019-02-03T00:09:41.689Z,132.20
2019-02-03T00:10:15.184Z,134.52
2019-02-03T00:10:48.779Z,129.75
2019-02-03T00:11:22.465Z,129.42
2019-02-03T00:11:56.050Z,132.93
2019-02-03T00:12:29.571Z,113.65
2019-02-03T00:13:03.122Z,124.65
2019-02-03T00:13:36.810Z,124.80
2019-02-03T00:14:10.550Z,128.57
2019-02-03T00:14:44.153Z,121.33
2019-02-03T00:15:17.782Z,122.20
2019-02-03T00:15:51.425Z,137.55
2019-02-03T00:16:25.111Z,133.12
2019-02-03T00:16:58.758Z,108.22
2019-02-03T00:17:32.362Z,122.90
2019-02-03T00:18:05.851Z,124.58
2019-02-03T00:18:39.499Z,110.60
2019-02-03T00:19:13.083Z,116.67
2019-02-03T00:19:46.670Z,117.20
2019-02-03T00:20:20.239Z,121.85
2019-02-03T00:20:53.733Z,122.28
2019-02-03T00:21:27.329Z,122.55
2019-02-03T00:22:01.039Z,118.17
2019-02-03T00:22:34.609Z,122.70
2019-02-03T00:23:08.210Z,115.97
2019-02-03T00:23:41.818Z,124.78
2019-02-03T00:24:15.367Z,117.03
2019-02-03T00:24:49.028Z,128.75
2019-02-03T00:25:22.645Z,116.80
2019-02-03T00:25:56.201Z,118.80
2019-02-03T00:26:29.749Z,118.75
2019-02-03T00:27:03.325Z,112.92
2019-02-03T00:27:37.109Z,113.15
2019-02-03T00:28:10.585Z,127.17
2019-02-03T00:28:44.481Z,123.02
2019-02-03T00:29:18.059Z,108.75
2019-02-03T00:29:52.048Z,113.47
2019-02-03T00:30:25.652Z,116.37
2019-02-03T00:30:59.616Z,118.15
2019-02-03T00:31:33.105Z,130.30
2019-02-03T00:32:07.403Z,135.30
2019-02-03T00:32:40.947Z,126.20
2019-02-03T00:33:14.732Z,128.42
2019-02-03T00:33:48.319Z,131.70
2019-02-03T00:34:22.567Z,127.15
2019-02-03T00:34:56.061Z,116.40
2019-02-03T00:35:29.978Z,122.40
2019-02-03T00:36:03.768Z,132.60
2019-02-03T00:36:37.432Z,116.62
2019-02-03T00:37:17.171Z,130.97
2019-02-03T00:37:46.193Z,115.85
2019-02-03T00:38:24.158Z,119.33
2019-02-03T00:38:55.015Z,134.95
2019-02-03T00:39:28.596Z,123.02
2019-02-03T00:40:02.800Z,123.45
2019-02-03T00:40:36.309Z,126.65
2019-02-03T00:41:09.842Z,119.60
2019-02-03T00:41:43.395Z,130.47
2019-02-03T00:42:16.958Z,114.22
2019-02-03T00:42:50.480Z,130.00
2019-02-03T00:43:23.999Z,117.25
2019-02-03T00:43:57.585Z,132.45
2019-02-03T00:44:31.241Z,107.35
2019-02-03T00:45:05.294Z,128.80
2019-02-03T00:45:38.865Z,127.12
2019-02-03T00:46:14.558Z,137.65
2019-02-03T00:46:48.072Z,125.72
2019-02-03T00:47:21.698Z,129.65
2019-02-03T00:47:55.304Z,131.27
2019-02-03T00:48:28.818Z,141.03
2019-02-03T00:49:02.408Z,126.62
2019-02-03T00:49:35.972Z,121.87
2019-02-03T00:50:10.061Z,134.27
2019-02-03T00:50:43.601Z,134.63
2019-02-03T00:51:17.131Z,129.60
2019-02-03T00:51:50.681Z,134.37
2019-02-03T00:52:24.249Z,128.68
2019-02-03T00:52:57.760Z,126.50
2019-02-03T00:53:31.302Z,145.85
2019-02-03T00:54:05.063Z,124.12
2019-02-03T00:54:38.560Z,137.75
2019-02-03T00:55:13.266Z,120.28
2019-02-03T00:55:46.872Z,131.20
2019-02-03T00:56:20.405Z,120.33
2019-02-03T00:56:53.914Z,116.35
2019-02-03T00:57:27.421Z,133.45
2019-02-03T00:58:00.922Z,117.62
2019-02-03T00:58:34.418Z,138.97
2019-02-03T00:59:08.050Z,119.47
2019-02-03T00:59:41.686Z,129.57
2019-02-03T01:00:15.529Z,144.77
2019-02-03T01:00:49.041Z,125.92
2019-02-03T01:01:22.625Z,128.95
2019-02-03T01:01:56.310Z,131.90
2019-02-03T01:02:29.907Z,127.38
2019-02-03T01:03:03.617Z,122.28
2019-02-03T01:03:37.102Z,108.95
2019-02-03T01:04:10.573Z,127.00
2019-02-03T01:04:44.235Z,131.12
2019-02-03T01:05:17.851Z,131.12
2019-02-03T01:05:51.304Z,129.90
2019-02-03T01:06:25.495Z,130.93
2019-02-03T01:07:00.667Z,134.05
2019-02-03T01:07:34.263Z,132.78
2019-02-03T01:08:08.032Z,137.22
2019-02-03T01:08:41.597Z,139.72
2019-02-03T01:09:15.128Z,144.30
2019-02-03T01:09:48.649Z,128.40
2019-02-03T01:10:22.358Z,123.47
2019-02-03T01:10:55.873Z,129.72
2019-02-03T01:11:29.372Z,126.02
2019-02-03T01:12:02.983Z,136.30
2019-02-03T01:12:36.642Z,122.78
2019-02-03T01:13:10.345Z,133.03
2019-02-03T01:13:43.847Z,139.57
2019-02-03T01:14:17.807Z,141.30
2019-02-03T01:14:51.329Z,142.82
2019-02-03T01:15:25.297Z,134.90
2019-02-03T01:15:58.918Z,129.35
2019-02-03T01:16:33.175Z,137.05
2019-02-03T01:17:06.874Z,121.60
2019-02-03T01:17:40.880Z,141.32
2019-02-03T01:18:14.445Z,131.12
2019-02-03T01:18:49.680Z,146.82
2019-02-03T01:19:23.177Z,135.20
2019-02-03T01:19:57.072Z,139.90
2019-02-03T01:20:30.566Z,127.97
2019-02-03T01:21:04.496Z,130.97
2019-02-03T01:21:37.990Z,127.65
2019-02-03T01:22:11.559Z,131.60
2019-02-03T01:22:45.203Z,132.78
2019-02-03T01:23:18.716Z,133.65
2019-02-03T01:23:52.229Z,141.05
2019-02-03T01:24:25.760Z,137.18
2019-02-03T01:24:59.274Z,134.50
2019-02-03T01:25:32.817Z,137.60
2019-02-03T01:26:06.528Z,136.60
2019-02-03T01:26:40.085Z,137.20
2019-02-03T01:27:13.600Z,142.15
2019-02-03T01:27:47.089Z,131.50
2019-02-03T01:28:20.608Z,128.80
2019-02-03T01:28:54.205Z,125.38
2019-02-03T01:29:27.700Z,141.40
2019-02-03T01:30:01.229Z,120.37
2019-02-03T01:30:34.715Z,134.57
2019-02-03T01:31:08.220Z,118.87
2019-02-03T01:31:41.729Z,136.95
2019-02-03T01:32:15.300Z,139.12
2019-02-03T01:32:48.941Z,130.78
2019-02-03T01:33:22.529Z,130.43
2019-02-03T01:33:56.189Z,137.00
2019-02-03T01:34:29.794Z,138.62
2019-02-03T01:35:03.413Z,136.95
2019-02-03T01:35:36.996Z,138.68
2019-02-03T01:36:14.353Z,135.82
2019-02-03T01:36:47.869Z,127.75
2019-02-03T01:37:21.443Z,129.93
2019-02-03T01:37:55.124Z,130.63
2019-02-03T01:38:28.629Z,129.15
2019-02-03T01:39:02.223Z,144.62
2019-02-03T01:39:35.733Z,136.40
2019-02-03T01:40:10.885Z,124.20
2019-02-03T01:40:44.465Z,131.78
2019-02-03T01:41:18.040Z,121.53
2019-02-03T01:41:51.516Z,135.20
2019-02-03T01:42:25.037Z,133.27
2019-02-03T01:42:58.523Z,121.57
2019-02-03T01:43:32.037Z,142.00
2019-02-03T01:44:05.728Z,126.15
2019-02-03T01:44:39.237Z,125.12
2019-02-03T01:45:14.084Z,132.52
2019-02-03T01:45:47.589Z,128.40
2019-02-03T01:46:21.118Z,123.82
2019-02-03T01:46:54.677Z,122.70
2019-02-03T01:47:28.136Z,133.63
2019-02-03T01:48:01.622Z,120.47
2019-02-03T01:48:35.174Z,125.95
2019-02-03T01:49:08.677Z,135.85
2019-02-03T01:49:42.165Z,134.57
2019-02-03T01:50:15.962Z,129.40
2019-02-03T01:50:49.829Z,133.57
2019-02-03T01:51:23.335Z,127.45
2019-02-03T01:51:57.253Z,122.67
2019-02-03T01:52:30.724Z,127.60
2019-02-03T01:53:04.622Z,128.82
2019-02-03T01:53:38.105Z,139.50
2019-02-03T01:54:12.090Z,131.78
2019-02-03T01:54:45.573Z,126.02
2019-02-03T01:55:22.835Z,127.05
2019-02-03T01:55:56.388Z,122.92
2019-02-03T01:56:30.235Z,124.55
2019-02-03T01:57:03.781Z,118.25
2019-02-03T01:57:37.781Z,131.87
2019-02-03T01:58:11.284Z,129.12
2019-02-03T01:58:45.157Z,118.80
2019-02-03T01:59:18.667Z,128.80
2019-02-03T01:59:52.513Z,137.92
2019-02-03T02:00:26.518Z,125.20
2019-02-03T02:01:00.289Z,125.85
2019-02-03T02:01:33.818Z,136.70
2019-02-03T02:02:07.323Z,141.60
2019-02-03T02:02:41.086Z,133.87
2019-02-03T02:03:14.724Z,111.40
2019-02-03T02:03:48.252Z,131.15
2019-02-03T02:04:21.738Z,139.47
2019-02-03T02:04:55.246Z,116.73
2019-02-03T02:05:28.751Z,133.12
2019-02-03T02:06:02.237Z,124.10
2019-02-03T02:06:36.238Z,110.83
2019-02-03T02:07:09.813Z,122.67
2019-02-03T02:07:51.143Z,117.77
2019-02-03T02:08:18.977Z,119.42
2019-02-03T02:08:52.504Z,120.82
2019-02-03T02:09:25.997Z,128.45
2019-02-03T02:10:00.812Z,124.22
2019-02-03T02:10:34.385Z,114.12
2019-02-03T02:11:07.873Z,127.10
2019-02-03T02:11:41.372Z,110.55
2019-02-03T02:12:14.872Z,118.08
2019-02-03T02:12:48.364Z,111.70
2019-02-03T02:13:21.926Z,115.95
2019-02-03T02:13:55.703Z,108.12
2019-02-03T02:14:29.325Z,96.63
2019-02-03T02:15:02.845Z,98.65
2019-02-03T02:15:36.331Z,102.38
2019-02-03T02:16:09.821Z,105.25
2019-02-03T02:16:43.331Z,99.47
2019-02-03T02:17:16.827Z,105.15
2019-02-03T02:17:50.529Z,111.85
2019-02-03T02:18:23.998Z,109.63
2019-02-03T02:18:57.588Z,110.08
2019-02-03T02:19:31.154Z,101.60
2019-02-03T02:20:05.439Z,108.40
2019-02-03T02:20:38.972Z,113.65
2019-02-03T02:21:12.639Z,100.42
2019-02-03T02:21:46.242Z,127.27
2019-02-03T02:22:19.775Z,109.20
2019-02-03T02:22:53.273Z,106.10
2019-02-03T02:23:26.845Z,101.02
2019-02-03T02:24:00.357Z,94.25
2019-02-03T02:24:33.872Z,102.07
2019-02-03T02:25:07.853Z,96.72
2019-02-03T02:25:41.380Z,103.38
2019-02-03T02:26:14.969Z,104.65
2019-02-03T02:26:48.566Z,103.60
2019-02-03T02:27:22.137Z,109.60
2019-02-03T02:27:55.791Z,103.65
2019-02-03T02:28:29.852Z,103.00
2019-02-03T02:29:03.357Z,108.92
2019-02-03T02:29:37.120Z,105.03
2019-02-03T02:30:11.578Z,105.30
2019-02-03T02:30:45.382Z,103.78
2019-02-03T02:31:18.956Z,114.25
2019-02-03T02:31:52.926Z,108.60
2019-02-03T02:32:26.439Z,108.35
2019-02-03T02:33:00.061Z,115.00
2019-02-03T02:33:33.642Z,120.05
2019-02-03T02:34:07.154Z,112.40
2019-02-03T02:34:40.678Z,117.35
2019-02-03T02:35:14.246Z,116.28
2019-02-03T02:35:47.779Z,121.60
2019-02-03T02:36:21.308Z,130.93
2019-02-03T02:36:54.892Z,117.13
2019-02-03T02:37:28.406Z,106.35
2019-02-03T02:38:06.578Z,133.78
2019-02-03T02:38:37.153Z,118.47
2019-02-03T02:39:10.738Z,120.55
2019-02-03T02:39:44.317Z,119.72
2019-02-03T02:40:18.979Z,131.43
2019-02-03T02:40:52.526Z,133.97
2019-02-03T02:41:26.039Z,126.58
2019-02-03T02:41:59.543Z,116.40
2019-02-03T02:42:33.068Z,134.87
2019-02-03T02:43:06.545Z,112.90
2019-02-03T02:43:40.031Z,116.50
2019-02-03T02:44:13.561Z,123.33
2019-02-03T02:44:47.061Z,128.93
2019-02-03T02:45:20.771Z,131.27
2019-02-03T02:45:54.357Z,136.07
2019-02-03T02:46:27.852Z,128.80
2019-02-03T02:47:01.431Z,132.35
2019-02-03T02:47:35.105Z,123.07
2019-02-03T02:48:08.882Z,124.60
2019-02-03T02:48:42.380Z,138.20
2019-02-03T02:49:15.912Z,128.12
2019-02-03T02:49:49.447Z,136.68
2019-02-03T02:50:24.274Z,130.70
2019-02-03T02:50:57.772Z,138.00
2019-02-03T02:51:31.431Z,138.55
2019-02-03T02:52:04.959Z,131.12
2019-02-03T02:52:38.493Z,141.00
2019-02-03T02:53:12.005Z,135.20
2019-02-03T02:53:45.653Z,129.27
2019-02-03T02:54:19.126Z,123.87
2019-02-03T02:54:52.645Z,139.07
2019-02-03T02:55:26.137Z,145.53
2019-02-03T02:55:59.638Z,134.20
2019-02-03T02:56:33.182Z,136.28
2019-02-03T02:57:06.693Z,143.68
2019-02-03T02:57:40.443Z,139.47
2019-02-03T02:58:14.225Z,156.95
2019-02-03T02:58:47.741Z,144.62
2019-02-03T02:59:21.414Z,142.55
2019-02-03T02:59:54.914Z,137.77
2019-02-03T03:00:28.861Z,132.47
2019-02-03T03:01:02.434Z,146.53
2019-02-03T03:01:36.509Z,133.12
2019-02-03T03:02:10.141Z,148.62
2019-02-03T03:02:44.193Z,136.70
2019-02-03T03:03:17.753Z,151.90
2019-02-03T03:03:51.797Z,152.47
2019-02-03T03:04:25.301Z,148.57
2019-02-03T03:04:59.281Z,147.22
2019-02-03T03:05:32.772Z,160.30
2019-02-03T03:06:06.760Z,143.95
2019-02-03T03:06:40.238Z,145.55
2019-02-03T03:07:13.768Z,145.25
2019-02-03T03:07:47.570Z,125.72
2019-02-03T03:08:21.044Z,156.20
2019-02-03T03:08:54.577Z,143.20
2019-02-03T03:09:28.183Z,163.55
2019-02-03T03:10:01.767Z,153.95
2019-02-03T03:10:35.352Z,141.70
2019-02-03T03:11:09.019Z,148.68
2019-02-03T03:11:42.598Z,142.70
2019-02-03T03:12:16.081Z,159.15
2019-02-03T03:12:49.640Z,156.97
2019-02-03T03:13:23.125Z,153.05
2019-02-03T03:13:56.702Z,160.15
2019-02-03T03:14:30.185Z,153.55
2019-02-03T03:15:04.216Z,170.80
2019-02-03T03:15:37.729Z,147.82
2019-02-03T03:16:11.229Z,163.75
2019-02-03T03:16:44.810Z,151.95
2019-02-03T03:17:18.395Z,144.65
2019-02-03T03:17:51.894Z,161.88
2019-02-03T03:18:25.387Z,161.20
2019-02-03T03:18:58.908Z,158.60
2019-02-03T03:19:32.297Z,161.20
2019-02-03T03:20:06.872Z,144.43
2019-02-03T03:20:40.355Z,166.05
2019-02-03T03:21:13.798Z,168.60
2019-02-03T03:21:47.485Z,162.35
2019-02-03T03:22:21.047Z,166.85
2019-02-03T03:22:54.640Z,149.70
2019-02-03T03:23:28.208Z,151.42
2019-02-03T03:24:01.691Z,152.43
2019-02-03T03:24:35.208Z,172.15
2019-02-03T03:25:09.723Z,155.60
2019-02-03T03:25:43.210Z,151.15
2019-02-03T03:26:16.700Z,164.15
2019-02-03T03:26:50.184Z,150.45
2019-02-03T03:27:23.648Z,151.30
2019-02-03T03:27:57.149Z,151.95
2019-02-03T03:28:30.646Z,144.43
2019-02-03T03:29:04.156Z,163.12
2019-02-03T03:29:37.649Z,168.47
2019-02-03T03:30:15.886Z,154.10
2019-02-03T03:30:49.402Z,144.13
2019-02-03T03:31:22.909Z,167.07
2019-02-03T03:31:56.463Z,147.20
2019-02-03T03:32:30.231Z,158.03
2019-02-03T03:33:03.929Z,146.98
2019-02-03T03:33:37.462Z,145.95
2019-02-03T03:34:10.950Z,161.20
2019-02-03T03:34:44.529Z,149.85
2019-02-03T03:35:18.116Z,147.80
2019-02-03T03:35:52.089Z,168.93
2019-02-03T03:36:25.573Z,154.82
2019-02-03T03:36:59.352Z,147.07
2019-02-03T03:37:32.863Z,161.15
2019-02-03T03:38:06.848Z,147.15
2019-02-03T03:38:40.397Z,142.37
2019-02-03T03:39:14.280Z,147.60
2019-02-03T03:39:47.789Z,154.85
2019-02-03T03:40:22.582Z,152.05
2019-02-03T03:40:56.077Z,148.07
2019-02-03T03:41:30.036Z,154.53
2019-02-03T03:42:03.841Z,150.75
2019-02-03T03:42:37.814Z,146.28
2019-02-03T03:43:11.388Z,152.43
2019-02-03T03:43:44.910Z,139.37
2019-02-03T03:44:18.416Z,137.47
2019-02-03T03:44:51.883Z,157.45
2019-02-03T03:45:26.073Z,141.88
2019-02-03T03:45:59.568Z,144.37
2019-02-03T03:46:33.077Z,153.97
2019-02-03T03:47:06.569Z,158.87
2019-02-03T03:47:40.152Z,150.75
2019-02-03T03:48:13.663Z,172.10
2019-02-03T03:48:47.168Z,143.35
2019-02-03T03:49:20.766Z,169.30
2019-02-03T03:49:54.260Z,164.07
2019-02-03T03:50:27.756Z,149.53
2019-02-03T03:51:01.316Z,152.05
2019-02-03T03:51:34.870Z,146.53
2019-02-03T03:52:08.406Z,135.72
2019-02-03T03:52:42.039Z,155.60
2019-02-03T03:53:15.611Z,131.93
2019-02-03T03:53:49.080Z,152.25
2019-02-03T03:54:22.493Z,155.55
2019-02-03T03:54:57.442Z,167.87
2019-02-03T03:55:30.934Z,148.02
2019-02-03T03:56:04.529Z,149.20
2019-02-03T03:56:38.022Z,169.53
2019-02-03T03:57:11.512Z,167.25
2019-02-03T03:57:45.009Z,168.72
2019-02-03T03:58:18.480Z,156.15
2019-02-03T03:58:51.986Z,162.15
2019-02-03T03:59:25.510Z,157.78
2019-02-03T03:59:59.053Z,156.05
2019-02-03T04:00:32.640Z,163.75
2019-02-03T04:01:06.195Z,173.22
2019-02-03T04:01:39.773Z,154.32
2019-02-03T04:02:13.297Z,144.40
2019-02-03T04:02:46.801Z,145.70
2019-02-03T04:03:20.296Z,146.22
2019-02-03T04:03:53.837Z,161.25
2019-02-03T04:04:27.317Z,162.95
2019-02-03T04:05:00.905Z,155.52
2019-02-03T04:05:34.433Z,159.15
2019-02-03T04:06:08.006Z,147.10
2019-02-03T04:06:41.658Z,152.15
2019-02-03T04:07:15.153Z,166.40
2019-02-03T04:07:48.930Z,166.70
2019-02-03T04:08:22.430Z,164.10
2019-02-03T04:08:56.327Z,156.10
2019-02-03T04:09:29.883Z,154.55
2019-02-03T04:10:04.155Z,147.40
2019-02-03T04:10:37.714Z,153.27
2019-02-03T04:11:11.697Z,166.18
2019-02-03T04:11:45.202Z,155.22
2019-02-03T04:12:19.474Z,152.70
2019-02-03T04:12:52.942Z,151.70
2019-02-03T04:13:26.810Z,154.35
2019-02-03T04:14:00.307Z,148.13
2019-02-03T04:14:34.272Z,171.20
2019-02-03T04:15:08.938Z,177.80
2019-02-03T04:15:42.836Z,165.37
2019-02-03T04:16:16.398Z,163.82
2019-02-03T04:16:49.955Z,167.00
2019-02-03T04:17:23.485Z,161.00
2019-02-03T04:17:57.043Z,154.03
2019-02-03T04:18:30.530Z,162.20
2019-02-03T04:19:04.641Z,176.85
2019-02-03T04:19:38.142Z,163.82
2019-02-03T04:20:18.871Z,163.55
2019-02-03T04:20:52.443Z,163.68
2019-02-03T04:21:26.216Z,163.18
2019-02-03T04:21:59.731Z,176.55
2019-02-03T04:22:33.490Z,163.32
2019-02-03T04:23:06.991Z,166.37
2019-02-03T04:23:40.557Z,164.88
2019-02-03T04:24:14.118Z,174.77
2019-02-03T04:24:47.712Z,171.87
2019-02-03T04:25:21.376Z,174.68
2019-02-03T04:25:54.852Z,150.18
2019-02-03T04:26:28.372Z,169.62
2019-02-03T04:27:01.953Z,200.93
2019-02-03T04:27:35.454Z,179.20
2019-02-03T04:28:08.937Z,178.07
2019-02-03T04:28:42.489Z,172.40
2019-02-03T04:29:15.965Z,178.42
2019-02-03T04:29:49.481Z,163.28
2019-02-03T04:30:23.430Z,178.27
2019-02-03T04:30:56.931Z,187.25
2019-02-03T04:31:30.419Z,183.00
2019-02-03T04:32:04.070Z,181.28
2019-02-03T04:32:37.545Z,196.68
2019-02-03T04:33:11.144Z,199.05
2019-02-03T04:33:44.643Z,212.57
2019-02-03T04:34:18.148Z,184.05
2019-02-03T04:34:51.670Z,187.27
2019-02-03T04:35:25.168Z,205.60
2019-02-03T04:35:58.669Z,206.63
2019-02-03T04:36:32.091Z,194.77
2019-02-03T04:37:05.636Z,197.22
2019-02-03T04:37:39.162Z,197.37
2019-02-03T04:38:12.670Z,182.37
2019-02-03T04:38:57.870Z,203.47
2019-02-03T04:39:21.413Z,188.30
2019-02-03T04:39:54.919Z,191.85
2019-02-03T04:40:28.418Z,176.05
2019-02-03T04:41:01.905Z,180.18
2019-02-03T04:41:35.397Z,178.72
2019-02-03T04:42:08.895Z,194.13
2019-02-03T04:42:42.375Z,211.95
2019-02-03T04:43:15.902Z,188.57
2019-02-03T04:43:49.418Z,187.50
2019-02-03T04:44:23.028Z,198.05
2019-02-03T04:44:56.514Z,188.95
2019-02-03T04:45:29.988Z,182.45
2019-02-03T04:46:03.543Z,192.80
2019-02-03T04:46:37.304Z,190.43
2019-02-03T04:47:10.808Z,201.32
2019-02-03T04:47:44.808Z,198.35
2019-02-03T04:48:18.310Z,181.60
2019-02-03T04:48:52.288Z,210.25
2019-02-03T04:49:25.828Z,205.92
2019-02-03T04:49:59.845Z,210.28
2019-02-03T04:50:34.958Z,206.38
2019-02-03T04:51:08.581Z,210.02
2019-02-03T04:51:42.074Z,196.60
2019-02-03T04:52:15.872Z,225.07
2019-02-03T04:52:49.377Z,202.35
2019-02-03T04:53:23.269Z,189.87
2019-02-03T04:53:56.865Z,196.70
2019-02-03T04:54:30.430Z,212.60
2019-02-03T04:55:04.442Z,202.95
2019-02-03T04:55:38.054Z,199.53
2019-02-03T04:56:11.620Z,228.73
2019-02-03T04:56:45.157Z,191.80
2019-02-03T04:57:18.892Z,212.55
2019-02-03T04:58:11.472Z,188.20
2019-02-03T04:58:45.069Z,221.18
2019-02-03T04:59:18.571Z,183.27
2019-02-03T04:59:51.981Z,216.90
2019-02-03T05:00:25.696Z,202.07
2019-02-03T05:00:59.286Z,219.20
2019-02-03T05:01:32.894Z,224.90
2019-02-03T05:02:06.399Z,225.10
2019-02-03T05:02:39.922Z,216.02
2019-02-03T05:03:13.445Z,223.97
2019-02-03T05:03:46.975Z,226.67
2019-02-03T05:04:20.481Z,225.57
2019-02-03T05:04:54.347Z,226.50
2019-02-03T05:05:27.951Z,224.25
2019-02-03T05:06:01.726Z,222.33
2019-02-03T05:06:35.278Z,203.10
2019-02-03T05:07:09.246Z,228.00
2019-02-03T05:07:42.928Z,224.47
2019-02-03T05:08:16.890Z,251.32
2019-02-03T05:08:50.389Z,227.55
2019-02-03T05:09:24.181Z,250.25
2019-02-03T05:09:57.678Z,235.72
2019-02-03T05:10:31.744Z,242.75
2019-02-03T05:11:05.272Z,238.65
2019-02-03T05:11:39.131Z,236.07
2019-02-03T05:12:12.726Z,223.30
2019-02-03T05:12:46.452Z,231.17
2019-02-03T05:13:20.323Z,247.55
2019-02-03T05:13:53.917Z,279.68
2019-02-03T05:14:27.406Z,230.25
2019-02-03T05:15:00.908Z,284.98
2019-02-03T05:15:34.477Z,240.00
2019-02-03T05:16:07.986Z,259.07
2019-02-03T05:16:41.559Z,248.18
2019-02-03T05:17:15.123Z,257.12
2019-02-03T05:17:49.771Z,229.68
2019-02-03T05:18:23.457Z,230.00
2019-02-03T05:18:56.981Z,239.97
2019-02-03T05:19:30.458Z,250.03
2019-02-03T05:20:04.996Z,245.78
2019-02-03T05:20:38.499Z,262.80
2019-02-03T05:21:11.983Z,260.17
2019-02-03T05:21:45.680Z,258.60
2019-02-03T05:22:19.326Z,254.85
2019-02-03T05:22:52.915Z,262.88
2019-02-03T05:23:26.641Z,246.40
2019-02-03T05:24:00.209Z,264.05
2019-02-03T05:24:33.709Z,270.20
2019-02-03T05:25:08.389Z,239.48
2019-02-03T05:25:41.920Z,254.28
2019-02-03T05:26:15.461Z,257.35
2019-02-03T05:26:48.946Z,248.53
2019-02-03T05:27:22.497Z,252.75
2019-02-03T05:27:56.093Z,284.37
2019-02-03T05:28:29.624Z,255.30
2019-02-03T05:29:03.161Z,249.20
2019-02-03T05:29:36.611Z,285.73
2019-02-03T05:30:35.047Z,265.75
2019-02-03T05:31:08.826Z,206.00
2019-02-03T05:31:42.344Z,233.72
2019-02-03T05:32:16.240Z,215.35
2019-02-03T05:32:50.293Z,243.70
2019-02-03T05:33:24.372Z,252.05
2019-02-03T05:33:57.791Z,289.90
2019-02-03T05:34:31.810Z,290.57
2019-02-03T05:35:05.302Z,261.80
2019-02-03T05:35:39.242Z,270.40
2019-02-03T05:36:12.821Z,277.98
2019-02-03T05:36:46.329Z,306.25
2019-02-03T05:37:19.791Z,279.75
2019-02-03T05:37:53.389Z,263.20
2019-02-03T05:38:26.904Z,273.30
2019-02-03T05:39:00.473Z,276.62
2019-02-03T05:39:33.892Z,250.93
2019-02-03T05:40:07.927Z,244.93
2019-02-03T05:40:41.416Z,240.05
2019-02-03T05:41:14.928Z,242.90
2019-02-03T05:41:48.483Z,262.52
2019-02-03T05:42:21.973Z,239.17
2019-02-03T05:42:55.545Z,251.65
2019-02-03T05:43:29.041Z,301.65
2019-02-03T05:44:02.633Z,295.23
2019-02-03T05:44:36.120Z,289.70
2019-02-03T05:45:10.843Z,291.95
2019-02-03T05:45:44.397Z,209.22
2019-02-03T05:46:17.915Z,304.10
2019-02-03T05:46:51.415Z,289.08
2019-02-03T05:47:24.913Z,288.50
2019-02-03T05:47:58.452Z,241.88
2019-02-03T05:48:32.052Z,290.10
2019-02-03T05:49:05.537Z,258.43
2019-02-03T05:49:39.093Z,301.05
2019-02-03T05:50:13.257Z,302.55
2019-02-03T05:50:46.665Z,283.60
2019-02-03T05:51:20.177Z,257.00
2019-02-03T05:51:53.741Z,269.77
2019-02-03T05:52:27.230Z,265.85
2019-02-03T05:53:00.740Z,290.12
2019-02-03T05:53:34.514Z,297.05
2019-02-03T05:54:08.092Z,281.90
2019-02-03T05:54:41.585Z,285.93
2019-02-03T05:55:15.255Z,310.38
2019-02-03T05:55:48.819Z,287.65
2019-02-03T05:56:22.394Z,272.70
2019-02-03T05:56:55.949Z,272.42
2019-02-03T05:57:29.442Z,279.30
2019-02-03T05:58:02.920Z,282.50
2019-02-03T05:58:36.545Z,305.12
2019-02-03T05:59:10.057Z,293.02
2019-02-03T05:59:43.655Z,303.05
2019-02-03T06:00:20.013Z,257.62
2019-02-03T06:00:53.517Z,257.83
2019-02-03T06:01:27.018Z,314.45
2019-02-03T06:02:00.542Z,280.50
2019-02-03T06:02:34.048Z,311.85
2019-02-03T06:03:08.055Z,301.15
2019-02-03T06:03:41.560Z,293.12
2019-02-03T06:04:15.451Z,312.30
2019-02-03T06:04:49.146Z,308.68
2019-02-03T06:05:23.147Z,319.80
2019-02-03T06:05:56.745Z,298.95
2019-02-03T06:06:30.765Z,275.45
2019-02-03T06:07:04.337Z,275.05
2019-02-03T06:07:38.324Z,275.52
2019-02-03T06:08:11.822Z,302.95
2019-02-03T06:08:47.017Z,260.73
2019-02-03T06:09:20.566Z,250.00
2019-02-03T06:09:54.567Z,317.50
2019-02-03T06:10:28.182Z,367.68
2019-02-03T06:11:02.069Z,328.90
2019-02-03T06:11:35.624Z,296.25
2019-02-03T06:12:09.250Z,302.60
2019-02-03T06:12:42.748Z,295.37
2019-02-03T06:13:16.239Z,266.05
2019-02-03T06:13:49.735Z,354.30
2019-02-03T06:14:23.225Z,376.62
2019-02-03T06:14:56.737Z,274.60
2019-02-03T06:15:30.319Z,278.07
2019-02-03T06:16:03.849Z,287.63
2019-02-03T06:16:37.450Z,298.73
2019-02-03T06:17:11.033Z,285.63
2019-02-03T06:17:44.537Z,335.38
2019-02-03T06:18:18.034Z,299.77
2019-02-03T06:18:51.573Z,277.13
2019-02-03T06:19:25.182Z,341.82
2019-02-03T06:19:58.691Z,295.97
2019-02-03T06:20:32.270Z,311.70
2019-02-03T06:21:05.920Z,282.43
2019-02-03T06:21:39.564Z,276.70
2019-02-03T06:22:13.084Z,282.77
2019-02-03T06:22:46.887Z,292.60
2019-02-03T06:23:20.501Z,315.68
2019-02-03T06:23:53.978Z,326.10
2019-02-03T06:24:27.467Z,323.45
2019-02-03T06:25:00.992Z,337.35
2019-02-03T06:25:34.485Z,285.27
2019-02-03T06:26:07.973Z,410.48
2019-02-03T06:26:41.544Z,336.80
2019-02-03T06:27:15.131Z,313.32
2019-02-03T06:27:48.642Z,258.20
2019-02-03T06:28:22.182Z,394.23
2019-02-03T06:28:55.752Z,317.73
2019-02-03T06:29:29.235Z,327.87
2019-02-03T06:30:02.732Z,368.75
2019-02-03T06:30:55.494Z,348.90
2019-02-03T06:31:29.071Z,278.98
2019-02-03T06:32:02.636Z,310.27
2019-02-03T06:32:36.114Z,319.02
2019-02-03T06:33:09.620Z,350.50
2019-02-03T06:33:43.967Z,280.42
2019-02-03T06:34:17.505Z,374.85
2019-02-03T06:34:50.935Z,366.40
2019-02-03T06:35:24.481Z,365.70
2019-02-03T06:35:58.155Z,355.10
2019-02-03T06:36:31.655Z,401.00
2019-02-03T06:37:05.220Z,341.85
2019-02-03T06:37:38.766Z,339.75
2019-02-03T06:38:12.252Z,350.45
2019-02-03T06:38:45.806Z,301.60
2019-02-03T06:39:19.366Z,286.30
2019-02-03T06:39:52.893Z,343.33
2019-02-03T06:40:26.411Z,331.00
2019-02-03T06:40:59.956Z,337.35
2019-02-03T06:41:33.547Z,303.25
2019-02-03T06:42:07.102Z,316.12
2019-02-03T06:42:40.606Z,273.40
2019-02-03T06:43:14.177Z,294.75
2019-02-03T06:43:47.729Z,292.15
2019-02-03T06:44:21.255Z,343.95
2019-02-03T06:44:56.781Z,288.85
2019-02-03T06:45:49.489Z,276.37
2019-02-03T06:46:45.663Z,289.45
2019-02-03T06:47:26.808Z,284.25
2019-02-03T06:48:00.530Z,300.82
2019-02-03T06:48:34.053Z,274.67
2019-02-03T06:49:14.502Z,304.98
2019-02-03T06:49:48.257Z,295.23
2019-02-03T06:50:21.677Z,332.83
2019-02-03T06:50:55.163Z,315.23
2019-02-03T06:51:28.680Z,344.27
2019-02-03T06:52:02.185Z,284.57
2019-02-03T06:52:35.720Z,351.95
2019-02-03T06:53:09.265Z,286.00
2019-02-03T06:53:42.757Z,291.80
2019-02-03T06:54:16.241Z,290.23
2019-02-03T06:54:49.741Z,330.35
2019-02-03T06:55:23.246Z,365.70
2019-02-03T06:55:56.813Z,289.42
2019-02-03T06:56:30.308Z,297.37
2019-02-03T06:57:04.328Z,330.02
2019-02-03T06:57:37.932Z,306.52
2019-02-03T06:58:11.437Z,311.55
2019-02-03T06:58:44.935Z,314.82
2019-02-03T06:59:18.437Z,279.02
2019-02-03T06:59:51.864Z,293.48
2019-02-03T07:00:25.515Z,306.90
2019-02-03T07:00:59.013Z,320.63
2019-02-03T07:01:32.524Z,327.50
2019-02-03T07:02:06.019Z,262.35
2019-02-03T07:02:39.512Z,285.55